Time;durP1;ratioP1;P1;durP2;ratioP2;P2;SDS_P1;SDS_P2;PMS_P1;PMS_P2;Temp;Humidity;BMP_temperature;BMP_pressure;BME280_temperature;BME280_humidity;BME280_pressure;Samples;Min_cycle;Max_cycle;Signal;HPM_P1;HPM_P2
2022/08/03 00:00:57;;;;;;;10.90;6.65;;;;;;;19.86;97.96;99422.89;1668103;84;21109;-77
2022/08/03 00:03:23;;;;;;;7.75;6.47;;;;;;;19.83;98.28;99423.66;1684866;84;21202;-77
2022/08/03 00:05:50;;;;;;;6.62;6.03;;;;;;;19.87;98.31;99425.90;1677318;84;21598;-77
2022/08/03 00:08:16;;;;;;;10.58;6.60;;;;;;;19.87;98.19;99429.41;1672997;84;21075;-79
2022/08/03 00:10:44;;;;;;;8.55;6.35;;;;;;;19.89;98.14;99427.83;1695237;82;21025;-78
2022/08/03 00:13:12;;;;;;;7.22;6.35;;;;;;;19.88;97.92;99431.06;1663896;84;21074;-79
2022/08/03 00:15:40;;;;;;;8.45;6.80;;;;;;;19.83;97.91;99428.23;1692367;83;21077;-78
2022/08/03 00:18:07;;;;;;;7.97;6.62;;;;;;;19.80;97.98;99433.59;1706593;82;21135;-78
2022/08/03 00:20:34;;;;;;;8.95;6.55;;;;;;;19.78;97.98;99427.61;1697676;83;21093;-78
2022/08/03 00:23:00;;;;;;;8.18;7.20;;;;;;;19.78;98.20;99428.12;1696829;83;21041;-76
2022/08/03 00:25:26;;;;;;;8.28;6.87;;;;;;;19.80;98.30;99421.99;1696912;84;21015;-75
2022/08/03 00:27:53;;;;;;;7.58;6.50;;;;;;;19.80;98.25;99420.64;1696746;82;21045;-76
2022/08/03 00:30:19;;;;;;;9.53;6.67;;;;;;;19.81;98.39;99415.53;1696970;82;21235;-75
2022/08/03 00:32:45;;;;;;;6.85;6.28;;;;;;;19.80;98.08;99414.72;1696774;83;21049;-77
2022/08/03 00:35:12;;;;;;;9.55;6.15;;;;;;;19.81;98.09;99418.22;1696798;82;21065;-74
2022/08/03 00:37:38;;;;;;;7.60;6.08;;;;;;;19.82;97.96;99412.61;1696154;82;21089;-77
2022/08/03 00:40:06;;;;;;;9.68;7.60;;;;;;;19.81;97.95;99408.79;1666657;84;21153;-78
2022/08/03 00:42:33;;;;;;;7.20;6.35;;;;;;;19.79;97.98;99407.67;1671351;84;21890;-78
2022/08/03 00:45:00;;;;;;;9.48;6.30;;;;;;;19.78;98.24;99414.14;1695490;84;21065;-77
2022/08/03 00:47:26;;;;;;;13.50;6.67;;;;;;;19.82;98.19;99413.95;1688429;83;21010;-78
2022/08/03 00:50:42;;;;;;;7.72;6.83;;;;;;;19.85;97.57;99405.91;1792735;79;22608;-78
2022/08/03 00:53:14;;;;;;;7.25;6.55;;;;;;;19.79;97.77;99412.25;1744553;80;21105;-76
2022/08/03 00:55:41;;;;;;;7.30;6.45;;;;;;;19.79;97.92;99416.30;1687265;83;21138;-77
2022/08/03 00:58:09;;;;;;;9.73;6.62;;;;;;;19.79;97.47;99421.69;1690295;83;21116;-77
2022/08/03 01:00:38;;;;;;;7.37;6.53;;;;;;;19.77;97.60;99420.56;1698779;83;21483;-78
2022/08/03 01:03:06;;;;;;;7.50;6.85;;;;;;;19.80;97.69;99421.99;1697617;83;21038;-78
2022/08/03 01:05:41;;;;;;;7.45;6.85;;;;;;;19.83;97.62;99421.50;1704753;82;21070;-77
2022/08/03 01:08:42;;;;;;;9.63;7.03;;;;;;;19.86;97.76;99419.69;1696035;82;21340;-77
2022/08/03 01:11:36;;;;;;;8.58;6.78;;;;;;;19.90;97.43;99420.86;1705780;82;21140;-77
2022/08/03 01:14:07;;;;;;;6.87;6.28;;;;;;;19.89;97.40;99423.24;1712159;83;20994;-76
2022/08/03 01:16:55;;;;;;;9.28;7.37;;;;;;;19.88;97.18;99426.20;1716617;82;21022;-78
2022/08/03 01:19:51;;;;;;;7.50;6.67;;;;;;;19.85;97.08;99419.39;1700626;82;21060;-78
2022/08/03 01:22:42;;;;;;;7.87;7.22;;;;;;;19.82;97.10;99424.73;1704359;82;21148;-80
2022/08/03 01:25:35;;;;;;;8.50;6.65;;;;;;;19.82;97.52;99418.53;1710292;82;21167;-79
2022/08/03 01:28:51;;;;;;;7.87;7.08;;;;;;;19.86;97.26;99425.59;1722786;83;21089;-78
2022/08/03 01:31:22;;;;;;;11.22;6.87;;;;;;;19.84;97.13;99428.55;1716051;82;21178;-79
2022/08/03 01:33:54;;;;;;;7.90;7.10;;;;;;;19.87;97.53;99427.24;1693640;82;21254;-78
2022/08/03 01:36:35;;;;;;;7.47;6.75;;;;;;;19.88;97.32;99428.89;1708292;82;21133;-76
2022/08/03 01:39:03;;;;;;;8.08;7.12;;;;;;;19.82;97.37;99428.77;1706073;82;21057;-78
2022/08/03 01:41:33;;;;;;;8.25;6.92;;;;;;;19.87;97.19;99433.98;1697882;83;21014;-76
2022/08/03 01:44:01;;;;;;;7.58;6.67;;;;;;;19.86;97.42;99432.33;1710478;82;21057;-77
2022/08/03 01:46:28;;;;;;;7.97;5.90;;;;;;;19.84;97.29;99428.55;1701549;82;21248;-76
2022/08/03 01:48:54;;;;;;;9.30;6.37;;;;;;;19.86;96.68;99427.78;1704066;82;21905;-77
2022/08/03 01:51:22;;;;;;;11.28;6.75;;;;;;;19.76;95.85;99421.64;1673797;85;21089;-77
2022/08/03 01:53:50;;;;;;;10.28;6.35;;;;;;;19.61;95.91;99430.70;1684149;84;21038;-77
2022/08/03 01:56:17;;;;;;;7.72;5.97;;;;;;;19.56;96.01;99428.69;1672580;84;20999;-77
2022/08/03 01:58:43;;;;;;;7.00;6.30;;;;;;;19.54;96.38;99429.98;1676856;84;21611;-77
2022/08/03 02:01:10;;;;;;;8.33;6.37;;;;;;;19.52;96.46;99428.06;1672924;84;21566;-78
2022/08/03 02:03:38;;;;;;;10.60;5.83;;;;;;;19.42;96.31;99429.45;1668396;84;21038;-78
2022/08/03 02:06:05;;;;;;;10.53;6.33;;;;;;;19.40;96.45;99419.98;1678669;84;21517;-80
2022/08/03 02:08:31;;;;;;;9.08;6.12;;;;;;;19.35;96.17;99419.84;1671190;84;21576;-79
2022/08/03 02:10:58;;;;;;;7.40;6.70;;;;;;;19.29;96.63;99415.40;1678128;85;21561;-78
2022/08/03 02:13:25;;;;;;;9.78;6.85;;;;;;;19.24;96.72;99415.58;1672553;84;21078;-78
2022/08/03 02:15:51;;;;;;;10.82;6.17;;;;;;;19.18;97.16;99427.78;1668798;84;21430;-76
2022/08/03 02:18:19;;;;;;;7.42;6.72;;;;;;;19.21;97.21;99417.91;1717352;81;21057;-77
2022/08/03 02:20:45;;;;;;;9.80;6.70;;;;;;;19.23;97.29;99415.80;1720160;83;21072;-77
2022/08/03 02:23:14;;;;;;;10.65;7.05;;;;;;;19.23;97.45;99417.96;1703017;83;21529;-76
2022/08/03 02:25:44;;;;;;;7.75;6.75;;;;;;;19.19;97.75;99423.52;1720496;82;21242;-75
2022/08/03 02:28:15;;;;;;;7.40;6.70;;;;;;;19.25;97.70;99429.85;1720963;81;21063;-75
2022/08/03 02:30:42;;;;;;;8.13;6.90;;;;;;;19.26;97.45;99427.47;1719661;81;21100;-76
2022/08/03 02:33:13;;;;;;;7.25;6.03;;;;;;;19.22;97.80;99431.69;1693285;83;21419;-76
2022/08/03 02:35:39;;;;;;;6.53;5.90;;;;;;;19.26;97.60;99426.12;1702392;83;21028;-75
2022/08/03 02:38:07;;;;;;;10.48;6.12;;;;;;;19.28;97.52;99428.56;1689557;83;21095;-74
2022/08/03 02:40:33;;;;;;;7.58;5.90;;;;;;;19.23;97.86;99427.92;1690017;83;21061;-74
2022/08/03 02:43:04;;;;;;;7.78;6.80;;;;;;;19.27;97.65;99427.75;1697177;83;21073;-74
2022/08/03 02:45:32;;;;;;;8.05;7.15;;;;;;;19.31;97.63;99434.30;1709033;83;21519;-76
2022/08/03 02:48:00;;;;;;;9.08;6.35;;;;;;;19.32;97.80;99426.53;1704073;82;21573;-76
2022/08/03 02:50:26;;;;;;;8.15;6.90;;;;;;;19.33;97.82;99432.20;1709494;82;21095;-76
2022/08/03 02:52:52;;;;;;;7.45;6.55;;;;;;;19.39;97.43;99436.67;1708917;82;21076;-75
2022/08/03 02:55:21;;;;;;;9.40;6.72;;;;;;;19.39;97.31;99435.83;1709117;82;20987;-78
2022/08/03 02:57:47;;;;;;;7.47;6.33;;;;;;;19.33;97.42;99442.16;1709346;82;21182;-78
2022/08/03 03:00:14;;;;;;;8.93;5.50;;;;;;;19.37;97.02;99445.52;1713501;82;21094;-77
2022/08/03 03:02:41;;;;;;;9.73;6.37;;;;;;;19.40;96.79;99432.91;1709848;82;21701;-76
2022/08/03 03:05:08;;;;;;;7.72;7.03;;;;;;;19.38;96.83;99437.72;1715337;82;21097;-76
2022/08/03 03:07:35;;;;;;;7.42;6.78;;;;;;;19.32;97.17;99430.57;1697766;82;21016;-77
2022/08/03 03:10:05;;;;;;;8.23;6.92;;;;;;;19.34;96.76;99433.03;1710388;82;21061;-75
2022/08/03 03:12:32;;;;;;;10.00;6.78;;;;;;;19.35;96.71;99429.27;1712563;82;21049;-76
2022/08/03 03:14:59;;;;;;;7.25;6.05;;;;;;;19.28;96.57;99437.48;1708946;82;21122;-76
2022/08/03 03:17:25;;;;;;;7.15;6.25;;;;;;;19.30;96.46;99435.91;1705448;83;21557;-75
2022/08/03 03:19:52;;;;;;;10.68;6.65;;;;;;;19.30;96.41;99429.98;1695761;83;21042;-75
2022/08/03 03:22:18;;;;;;;7.65;6.95;;;;;;;19.30;96.42;99436.72;1711537;82;20990;-76
2022/08/03 03:24:47;;;;;;;9.35;6.60;;;;;;;19.27;96.51;99437.70;1697733;83;21046;-75
2022/08/03 03:27:14;;;;;;;9.88;7.05;;;;;;;19.31;96.50;99443.73;1691682;83;21104;-76
2022/08/03 03:29:40;;;;;;;8.30;7.30;;;;;;;19.33;96.57;99447.55;1710543;82;21030;-75
2022/08/03 03:32:07;;;;;;;7.87;6.80;;;;;;;19.30;96.71;99445.33;1712510;82;21050;-75
2022/08/03 03:34:33;;;;;;;8.50;7.12;;;;;;;19.34;96.71;99437.89;1704378;82;21564;-75
2022/08/03 03:37:00;;;;;;;11.12;7.03;;;;;;;19.39;96.51;99438.52;1711868;82;21527;-76
2022/08/03 03:39:27;;;;;;;9.20;7.00;;;;;;;19.35;96.68;99440.86;1707630;82;21302;-78
2022/08/03 03:41:53;;;;;;;7.25;6.53;;;;;;;19.40;96.67;99444.22;1707726;82;21504;-75
2022/08/03 03:44:20;;;;;;;10.18;6.80;;;;;;;19.44;96.44;99443.51;1710787;82;21570;-75
2022/08/03 03:46:46;;;;;;;7.75;7.05;;;;;;;19.42;96.28;99448.31;1714265;82;21033;-73
2022/08/03 03:49:12;;;;;;;6.97;5.47;;;;;;;19.36;96.40;99450.59;1713408;82;21031;-75
2022/08/03 03:51:39;;;;;;;7.00;6.30;;;;;;;19.44;96.45;99458.86;1719545;82;21224;-76
2022/08/03 03:54:06;;;;;;;7.72;7.03;;;;;;;19.52;96.65;99461.73;1712243;82;21101;-76
2022/08/03 03:56:33;;;;;;;6.95;5.97;;;;;;;19.53;96.44;99470.09;1724547;82;21533;-78
2022/08/03 03:58:59;;;;;;;10.08;6.87;;;;;;;19.59;96.55;99469.19;1713347;82;21030;-78
2022/08/03 04:01:26;;;;;;;10.15;7.10;;;;;;;19.68;96.17;99469.10;1706856;82;21617;-79
2022/08/03 04:03:52;;;;;;;7.47;6.15;;;;;;;19.68;95.79;99473.68;1703554;83;21089;-80
2022/08/03 04:11:52;;;;;;;7.58;6.33;;;;;;;19.66;95.20;99472.56;1697562;82;22135;-77
2022/08/03 04:14:29;;;;;;;6.85;5.72;;;;;;;19.63;95.66;99473.86;1705354;82;21125;-79
2022/08/03 04:17:00;;;;;;;8.98;6.37;;;;;;;19.73;95.51;99477.88;1707692;82;22270;-78
2022/08/03 04:19:35;;;;;;;7.08;5.90;;;;;;;19.80;95.13;99474.02;1688426;83;22016;-79
2022/08/03 04:22:05;;;;;;;7.05;6.17;;;;;;;19.77;94.87;99478.52;1696332;83;21065;-78
2022/08/03 04:24:51;;;;;;;8.35;6.37;;;;;;;19.78;94.36;99482.02;1698008;83;21029;-77
2022/08/03 04:27:23;;;;;;;7.30;6.45;;;;;;;19.81;94.94;99481.56;1684510;83;21072;-76
2022/08/03 04:29:52;;;;;;;6.95;5.90;;;;;;;19.83;95.12;99482.96;1679201;83;21139;-79
2022/08/03 04:32:19;;;;;;;7.28;5.97;;;;;;;19.87;94.73;99482.50;1661488;83;21101;-77
2022/08/03 04:34:46;;;;;;;7.55;6.75;;;;;;;19.93;94.57;99489.64;1668625;83;21105;-79
2022/08/03 04:37:24;;;;;;;6.17;5.40;;;;;;;19.93;94.37;99482.91;1682347;84;21018;-76
2022/08/03 04:39:50;;;;;;;6.15;5.50;;;;;;;19.91;94.11;99483.67;1712135;82;21030;-79
2022/08/03 04:42:17;;;;;;;7.03;6.33;;;;;;;19.96;93.98;99487.83;1689492;83;21208;-77
2022/08/03 04:44:44;;;;;;;8.65;6.17;;;;;;;19.95;94.10;99480.28;1695158;83;21236;-79
2022/08/03 04:47:10;;;;;;;6.60;5.87;;;;;;;19.98;94.17;99483.84;1693950;83;21598;-76
2022/08/03 04:49:37;;;;;;;8.18;6.70;;;;;;;20.03;94.25;99484.50;1677841;84;21546;-76
2022/08/03 04:52:04;;;;;;;7.65;6.05;;;;;;;20.03;94.32;99489.35;1684643;85;21620;-77
2022/08/03 04:54:40;;;;;;;9.05;6.03;;;;;;;20.08;94.17;99481.89;1694601;83;21119;-74
2022/08/03 04:57:06;;;;;;;7.28;5.50;;;;;;;20.16;93.99;99486.10;1669425;84;21532;-75
2022/08/03 04:59:33;;;;;;;6.90;5.55;;;;;;;20.16;93.84;99480.17;1692229;83;21089;-78
2022/08/03 05:01:59;;;;;;;6.72;6.05;;;;;;;20.20;94.44;99485.41;1695976;83;21607;-79
2022/08/03 05:04:25;;;;;;;8.08;6.20;;;;;;;20.31;93.80;99482.37;1695371;83;21112;-78
2022/08/03 05:06:52;;;;;;;9.83;6.85;;;;;;;20.34;93.61;99484.61;1691744;83;21099;-80
2022/08/03 05:09:19;;;;;;;6.42;5.92;;;;;;;20.34;93.27;99485.11;1691270;84;21025;-78
2022/08/03 05:11:46;;;;;;;8.70;6.67;;;;;;;20.43;93.41;99484.50;1692014;84;20997;-81
2022/08/03 05:14:12;;;;;;;7.55;6.05;;;;;;;20.53;92.43;99489.81;1695991;83;21037;-79
2022/08/03 05:16:39;;;;;;;6.62;5.67;;;;;;;20.52;92.31;99488.20;1682530;83;21014;-81
2022/08/03 05:19:05;;;;;;;8.13;5.90;;;;;;;20.60;91.52;99491.34;1699911;83;21206;-79
2022/08/03 05:21:32;;;;;;;11.75;6.47;;;;;;;20.70;91.33;99491.27;1695908;83;21105;-79
2022/08/03 05:23:58;;;;;;;6.65;5.95;;;;;;;20.76;91.34;99488.95;1696838;83;21105;-80
2022/08/03 05:26:24;;;;;;;8.03;7.10;;;;;;;20.78;91.10;99489.52;1716686;83;21025;-80
2022/08/03 05:28:51;;;;;;;8.15;6.92;;;;;;;20.87;91.28;99494.83;1710548;83;21475;-81
2022/08/03 05:31:18;;;;;;;8.15;7.25;;;;;;;20.96;91.65;99495.27;1695989;83;21201;-80
2022/08/03 05:33:47;;;;;;;8.73;6.37;;;;;;;20.95;91.58;99493.08;1695381;83;21024;-81
2022/08/03 05:36:13;;;;;;;7.72;6.75;;;;;;;21.03;91.67;99493.77;1692908;83;21120;-80
2022/08/03 05:38:40;;;;;;;7.30;6.55;;;;;;;21.10;91.45;99497.13;1697825;83;21085;-82
2022/08/03 05:41:06;;;;;;;9.48;6.78;;;;;;;21.09;91.15;99504.39;1692560;83;21045;-80
2022/08/03 05:43:34;;;;;;;7.85;7.03;;;;;;;21.13;91.02;99508.78;1704483;83;21801;-79
2022/08/03 05:46:00;;;;;;;8.13;7.30;;;;;;;21.15;90.99;99504.80;1694886;83;21076;-78
2022/08/03 05:48:27;;;;;;;7.75;6.33;;;;;;;21.12;90.89;99503.11;1700966;83;21100;-78
2022/08/03 05:50:54;;;;;;;7.55;6.72;;;;;;;21.14;91.04;99501.80;1686745;83;21193;-82
2022/08/03 05:53:20;;;;;;;8.28;6.50;;;;;;;21.25;91.21;99502.80;1696432;83;21100;-78
2022/08/03 05:55:46;;;;;;;7.67;6.87;;;;;;;21.28;90.73;99505.00;1685590;83;21871;-79
2022/08/03 05:58:13;;;;;;;9.50;6.58;;;;;;;21.26;90.84;99504.42;1705170;82;21082;-80
2022/08/03 06:00:40;;;;;;;7.87;7.12;;;;;;;21.35;90.81;99508.91;1712868;82;21006;-77
2022/08/03 06:03:06;;;;;;;7.60;6.90;;;;;;;21.46;90.23;99508.56;1714941;83;21006;-79
2022/08/03 06:05:35;;;;;;;8.30;6.90;;;;;;;21.50;90.41;99508.36;1717889;82;21076;-80
2022/08/03 06:08:02;;;;;;;7.22;6.55;;;;;;;21.60;90.55;99510.70;1709862;84;21395;-83
2022/08/03 06:10:29;;;;;;;9.28;7.40;;;;;;;21.72;90.53;99505.20;1713001;82;21824;-85
2022/08/03 06:12:57;;;;;;;7.78;6.67;;;;;;;21.76;90.10;99515.80;1715151;82;21042;-84
2022/08/03 06:15:23;;;;;;;7.28;6.62;;;;;;;21.84;89.28;99517.81;1714233;82;21643;-83
2022/08/03 06:17:50;;;;;;;8.38;7.58;;;;;;;21.93;89.35;99519.03;1680794;83;21198;-85
2022/08/03 06:20:19;;;;;;;10.32;6.78;;;;;;;21.93;88.99;99510.92;1673939;83;21135;-86
2022/08/03 06:22:47;;;;;;;7.40;6.80;;;;;;;21.99;89.02;99512.63;1689648;83;21005;-81
2022/08/03 06:25:13;;;;;;;8.45;7.62;;;;;;;22.10;88.68;99517.12;1716942;82;21013;-82
2022/08/03 06:27:40;;;;;;;8.30;6.92;;;;;;;22.12;88.31;99512.81;1711910;82;21054;-79
2022/08/03 06:30:09;;;;;;;7.58;6.62;;;;;;;22.19;88.27;99514.27;1711563;82;21046;-82
2022/08/03 06:32:41;;;;;;;8.08;7.22;;;;;;;22.31;87.91;99510.12;1710159;82;21857;-79
2022/08/03 06:35:08;;;;;;;7.47;6.67;;;;;;;22.39;87.69;99512.93;1706402;82;21093;-82
2022/08/03 06:37:47;;;;;;;10.20;7.65;;;;;;;22.49;87.15;99514.41;1689885;83;21648;-79
2022/08/03 06:40:17;;;;;;;8.48;7.67;;;;;;;22.59;85.89;99517.77;1711319;82;21644;-81
2022/08/03 06:42:44;;;;;;;10.25;6.80;;;;;;;22.60;85.74;99528.05;1694035;83;21049;-77
2022/08/03 06:45:11;;;;;;;8.83;6.72;;;;;;;22.68;85.44;99519.50;1709125;82;22135;-77
2022/08/03 06:47:38;;;;;;;8.75;7.25;;;;;;;22.79;85.36;99517.17;1687454;83;21093;-80
2022/08/03 06:50:08;;;;;;;8.88;7.53;;;;;;;22.84;85.38;99517.23;1687004;83;21104;-82
2022/08/03 06:52:35;;;;;;;8.78;7.20;;;;;;;22.88;85.09;99514.30;1689670;83;21063;-84
2022/08/03 06:55:03;;;;;;;8.43;7.15;;;;;;;23.03;84.90;99514.22;1712176;82;21066;-86
2022/08/03 06:57:30;;;;;;;8.45;7.65;;;;;;;23.12;84.13;99516.21;1719440;82;21041;-85
2022/08/03 07:00:00;;;;;;;9.20;7.40;;;;;;;23.16;83.62;99516.52;1707485;82;21062;-84
2022/08/03 07:02:24;;;;;;;7.22;6.50;;;;;;;23.22;83.18;99520.06;1709030;82;21073;-84
2022/08/03 07:04:51;;;;;;;9.05;7.50;;;;;;;23.25;82.39;99515.50;1715841;82;21046;-85
2022/08/03 07:07:18;;;;;;;9.05;7.45;;;;;;;23.22;82.57;99521.42;1706757;81;21049;-85
2022/08/03 07:09:47;;;;;;;7.78;7.03;;;;;;;23.24;82.65;99520.66;1693349;82;21416;-85
2022/08/03 07:12:13;;;;;;;9.70;7.28;;;;;;;23.41;81.85;99520.51;1716314;81;21023;-85
2022/08/03 07:14:40;;;;;;;9.70;7.47;;;;;;;23.53;81.33;99522.53;1713690;82;21089;-85
2022/08/03 07:17:06;;;;;;;8.48;7.60;;;;;;;23.58;81.55;99521.20;1723311;82;21023;-88
2022/08/03 07:19:33;;;;;;;7.28;6.62;;;;;;;23.65;81.35;99519.09;1699741;82;21049;-86
2022/08/03 07:22:02;;;;;;;8.23;7.40;;;;;;;23.79;80.63;99522.74;1684256;83;21866;-87
2022/08/03 07:24:28;;;;;;;14.03;8.30;;;;;;;23.92;79.41;99525.00;1682600;83;21011;-86
2022/08/03 07:26:55;;;;;;;8.08;7.28;;;;;;;23.89;79.31;99522.80;1724159;81;21081;-85
2022/08/03 07:29:23;;;;;;;7.65;6.95;;;;;;;23.86;79.51;99526.87;1716132;82;21104;-84
2022/08/03 07:31:50;;;;;;;12.40;7.03;;;;;;;23.96;79.76;99528.02;1708086;82;21114;-84
2022/08/03 07:34:17;;;;;;;8.03;7.25;;;;;;;24.06;79.29;99530.23;1692430;83;21090;-88
2022/08/03 07:36:44;;;;;;;8.73;7.50;;;;;;;24.10;78.65;99534.05;1687306;83;21095;-83
2022/08/03 07:39:10;;;;;;;13.35;6.70;;;;;;;24.07;79.06;99527.81;1709559;82;21046;-82
2022/08/03 07:41:37;;;;;;;8.35;7.45;;;;;;;24.19;79.57;99532.23;1707809;82;21077;-86
2022/08/03 07:44:04;;;;;;;8.88;7.95;;;;;;;24.29;79.83;99534.44;1708734;83;21054;-84
2022/08/03 07:46:32;;;;;;;11.12;7.75;;;;;;;24.38;79.52;99533.41;1708066;82;21223;-83
2022/08/03 07:48:58;;;;;;;7.58;6.87;;;;;;;24.48;78.67;99537.52;1708934;82;20994;-85
2022/08/03 07:51:25;;;;;;;8.45;7.35;;;;;;;24.67;78.43;99546.05;1691614;83;21076;-86
2022/08/03 07:53:51;;;;;;;8.35;7.58;;;;;;;24.84;77.97;99547.72;1698844;83;21188;-85
2022/08/03 07:56:18;;;;;;;8.50;7.37;;;;;;;24.89;77.63;99551.27;1691482;83;21074;-85
2022/08/03 07:58:45;;;;;;;8.83;7.67;;;;;;;24.93;76.57;99552.91;1685385;83;21513;-83
2022/08/03 08:01:12;;;;;;;8.30;7.17;;;;;;;24.95;76.31;99552.66;1711135;82;21045;-86
2022/08/03 08:03:38;;;;;;;8.93;7.65;;;;;;;25.06;75.89;99550.23;1712848;82;21606;-84
2022/08/03 08:06:05;;;;;;;8.38;7.53;;;;;;;25.13;75.71;99548.09;1716077;82;21035;-83
2022/08/03 08:08:32;;;;;;;8.88;7.37;;;;;;;25.19;76.30;99557.88;1701107;82;21054;-85
2022/08/03 08:10:58;;;;;;;9.40;7.25;;;;;;;25.27;75.57;99551.93;1710445;82;21189;-83
2022/08/03 08:13:25;;;;;;;7.55;6.75;;;;;;;25.35;74.81;99551.94;1710693;82;21022;-85
2022/08/03 08:15:51;;;;;;;8.60;7.08;;;;;;;25.52;74.21;99559.84;1709199;82;21096;-84
2022/08/03 08:18:18;;;;;;;9.30;7.20;;;;;;;25.61;73.72;99562.30;1712549;82;21050;-82
2022/08/03 08:20:44;;;;;;;9.23;7.72;;;;;;;25.64;74.03;99563.10;1712796;82;21038;-83
2022/08/03 08:23:11;;;;;;;15.25;7.85;;;;;;;25.74;73.87;99565.00;1682542;83;21223;-85
2022/08/03 08:25:38;;;;;;;11.10;7.85;;;;;;;25.88;73.20;99566.62;1676985;83;20987;-84
2022/08/03 08:28:04;;;;;;;8.90;8.10;;;;;;;26.03;72.32;99563.91;1712693;82;21007;-84
2022/08/03 08:30:33;;;;;;;9.78;7.95;;;;;;;26.09;71.94;99555.19;1713388;82;21133;-86
2022/08/03 08:32:59;;;;;;;10.05;8.93;;;;;;;26.15;72.33;99562.80;1701893;82;21059;-84
2022/08/03 08:35:26;;;;;;;12.20;8.73;;;;;;;26.24;72.11;99561.97;1706814;82;21224;-80
2022/08/03 08:37:52;;;;;;;10.10;8.03;;;;;;;26.41;70.89;99558.92;1695450;83;21037;-83
2022/08/03 08:40:22;;;;;;;8.30;7.60;;;;;;;26.47;70.60;99566.54;1661292;84;21062;-81
2022/08/03 08:42:48;;;;;;;7.83;7.12;;;;;;;26.42;69.70;99570.08;1658649;84;21027;-81
2022/08/03 08:45:15;;;;;;;9.23;7.45;;;;;;;26.28;69.36;99571.20;1711348;82;21054;-83
2022/08/03 08:47:45;;;;;;;12.47;8.45;;;;;;;26.18;69.57;99567.71;1688910;83;22395;-84
2022/08/03 08:50:11;;;;;;;9.28;8.03;;;;;;;26.13;70.17;99564.98;1680082;82;21274;-85
2022/08/03 08:52:41;;;;;;;9.90;7.80;;;;;;;26.18;70.66;99566.35;1723563;82;21129;-84
2022/08/03 08:55:09;;;;;;;10.50;7.87;;;;;;;26.32;70.40;99567.95;1725531;81;21045;-91
2022/08/03 08:57:39;;;;;;;9.15;7.95;;;;;;;26.43;70.53;99571.72;1706052;81;21640;-83
2022/08/03 09:00:13;;;;;;;8.65;7.62;;;;;;;26.45;70.25;99570.89;1722728;81;21173;-84
2022/08/03 09:02:41;;;;;;;;;;;;;;;26.43;69.99;99564.91;1688215;83;21045;-86
2022/08/03 09:05:13;;;;;;;9.40;8.60;;;;;;;26.32;69.09;99571.48;1653613;85;20153;-84
2022/08/03 09:07:41;;;;;;;8.25;7.00;;;;;;;26.24;70.22;99574.77;1671468;84;21039;-83
2022/08/03 09:10:09;;;;;;;8.98;8.05;;;;;;;26.40;71.15;99570.90;1672703;84;21094;-81
2022/08/03 09:12:45;;;;;;;9.75;8.08;;;;;;;26.66;71.12;99562.69;1679215;83;21085;-84
2022/08/03 09:15:30;;;;;;;8.73;7.92;;;;;;;26.86;69.84;99569.94;1668411;83;21126;-82
2022/08/03 09:18:00;;;;;;;10.58;8.50;;;;;;;27.08;69.07;99576.35;1666477;84;21509;-81
2022/08/03 09:20:29;;;;;;;9.70;8.43;;;;;;;27.20;67.94;99568.66;1672265;83;21050;-80
2022/08/03 09:23:13;;;;;;;9.63;8.65;;;;;;;27.30;68.64;99560.19;1675664;83;21070;-86
2022/08/03 09:25:40;;;;;;;11.25;8.20;;;;;;;27.41;68.52;99565.80;1677140;83;21242;-84
2022/08/03 09:28:14;;;;;;;9.03;8.08;;;;;;;27.56;68.01;99561.59;1675935;81;20996;-80
2022/08/03 09:30:42;;;;;;;10.75;7.87;;;;;;;27.70;66.97;99559.58;1693815;83;21057;-80
2022/08/03 09:33:15;;;;;;;8.95;7.67;;;;;;;27.73;66.68;99566.65;1677445;83;21021;-81
2022/08/03 09:35:46;;;;;;;11.05;7.92;;;;;;;27.76;66.49;99570.73;1701847;83;21565;-79
2022/08/03 09:38:23;;;;;;;8.25;7.55;;;;;;;27.73;65.86;99578.92;1692815;83;21271;-79
2022/08/03 09:40:50;;;;;;;8.85;7.95;;;;;;;27.73;65.65;99580.85;1669669;85;21102;-75
2022/08/03 09:43:16;;;;;;;8.80;8.10;;;;;;;27.72;65.35;99575.11;1666077;84;21148;-77
2022/08/03 09:45:46;;;;;;;16.27;9.20;;;;;;;27.64;65.15;99577.38;1678499;83;21172;-79
2022/08/03 09:48:33;;;;;;;16.07;10.35;;;;;;;27.50;67.28;99583.20;1688769;83;21517;-87
2022/08/03 09:51:03;;;;;;;16.07;9.13;;;;;;;27.15;71.41;99600.04;1682389;83;21245;-84
2022/08/03 09:53:29;;;;;;;14.53;8.85;;;;;;;26.54;75.69;99598.91;1687012;83;21030;-79
2022/08/03 09:56:00;;;;;;;10.53;9.48;;;;;;;25.85;76.86;99601.20;1674083;83;21155;-84
2022/08/03 09:58:29;;;;;;;11.20;9.53;;;;;;;25.15;78.70;99598.08;1710972;82;21134;-83
2022/08/03 10:01:02;;;;;;;9.65;8.13;;;;;;;24.56;80.68;99604.66;1678052;83;21604;-80
2022/08/03 10:03:34;;;;;;;9.40;8.40;;;;;;;24.10;82.44;99603.25;1679164;83;21173;-81
2022/08/03 10:06:19;;;;;;;9.53;8.80;;;;;;;23.66;83.94;99605.31;1709787;82;21791;-82
2022/08/03 10:08:46;;;;;;;11.60;9.08;;;;;;;23.29;86.09;99605.50;1712007;82;21070;-80
2022/08/03 10:11:29;;;;;;;8.95;8.10;;;;;;;23.00;87.32;99612.20;1702188;82;21111;-81
2022/08/03 10:13:58;;;;;;;10.38;8.20;;;;;;;22.88;88.63;99613.70;1711496;82;21065;-79
2022/08/03 10:16:24;;;;;;;10.13;8.78;;;;;;;22.78;88.88;99613.03;1709418;82;21228;-78
2022/08/03 10:18:56;;;;;;;9.73;8.63;;;;;;;22.70;90.11;99610.23;1708730;82;21042;-84
2022/08/03 10:21:21;;;;;;;10.32;9.25;;;;;;;22.73;90.20;99617.02;1707703;82;21094;-86
2022/08/03 10:23:48;;;;;;;9.40;8.35;;;;;;;22.84;90.54;99616.62;1718775;82;21007;-86
2022/08/03 10:26:16;;;;;;;10.48;8.58;;;;;;;23.11;91.75;99612.64;1711266;82;21053;-80
2022/08/03 10:28:48;;;;;;;8.90;8.00;;;;;;;23.48;92.59;99607.88;1704640;82;21081;-79
2022/08/03 10:31:15;;;;;;;8.40;7.70;;;;;;;24.03;95.15;99586.41;1712301;82;21494;-84
2022/08/03 10:33:43;;;;;;;9.13;7.97;;;;;;;24.72;93.80;99595.48;1715767;82;21033;-81
2022/08/03 10:36:10;;;;;;;9.65;8.75;;;;;;;25.30;90.77;99592.70;1711738;82;21095;-76
2022/08/03 10:38:51;;;;;;;9.83;8.03;;;;;;;25.84;88.95;99596.28;1706400;82;21102;-81
2022/08/03 10:41:19;;;;;;;9.15;8.15;;;;;;;26.26;87.00;99591.09;1707757;82;22073;-79
2022/08/03 10:44:07;;;;;;;9.18;8.00;;;;;;;26.96;83.58;99581.34;1710872;82;21025;-78
2022/08/03 10:46:34;;;;;;;8.20;7.40;;;;;;;27.52;81.73;99578.83;1709685;82;21048;-79
2022/08/03 10:49:01;;;;;;;8.50;7.70;;;;;;;27.96;80.53;99573.86;1681998;83;21054;-79
2022/08/03 10:51:31;;;;;;;8.00;7.28;;;;;;;28.17;78.36;99571.18;1691840;83;21140;-79
2022/08/03 10:53:56;;;;;;;7.87;7.28;;;;;;;28.34;75.05;99568.00;1706904;82;21118;-80
2022/08/03 10:59:48;;;;;;;8.30;7.40;;;;;;;28.25;73.71;99558.81;1711890;83;21018;-82
2022/08/03 11:02:14;;;;;;;8.03;7.33;;;;;;;28.12;74.43;99557.56;1676567;83;21058;-81
2022/08/03 11:04:46;;;;;;;7.97;6.87;;;;;;;28.16;73.97;99554.55;1708987;82;20991;-82
2022/08/03 11:07:23;;;;;;;8.25;6.70;;;;;;;28.21;72.19;99551.74;1710978;82;21606;-74
2022/08/03 11:09:54;;;;;;;7.53;6.83;;;;;;;28.25;70.78;99556.08;1709498;82;21032;-78
2022/08/03 11:12:30;;;;;;;7.83;7.12;;;;;;;28.32;70.71;99552.45;1710980;82;21022;-74
2022/08/03 11:14:58;;;;;;;8.60;7.58;;;;;;;28.57;70.86;99551.37;1711223;82;21084;-78
2022/08/03 11:17:25;;;;;;;7.80;7.00;;;;;;;29.03;68.53;99552.66;1713279;82;21121;-77
2022/08/03 11:19:52;;;;;;;7.00;6.40;;;;;;;29.51;70.19;99556.61;1706556;82;21061;-75
2022/08/03 11:22:19;;;;;;;7.37;6.78;;;;;;;30.16;69.31;99553.03;1713054;82;21112;-77
2022/08/03 11:24:56;;;;;;;9.60;6.83;;;;;;;30.71;64.96;99548.14;1706573;82;21583;-78
2022/08/03 11:27:30;;;;;;;8.35;6.92;;;;;;;31.02;63.06;99541.98;1707946;82;21065;-78
2022/08/03 11:30:20;;;;;;;8.30;6.85;;;;;;;31.24;63.01;99536.30;1710379;82;21026;-80
2022/08/03 11:32:51;;;;;;;8.05;7.15;;;;;;;31.52;61.95;99526.84;1711448;82;21132;-79
2022/08/03 11:35:21;;;;;;;6.60;6.10;;;;;;;31.74;60.97;99528.74;1710414;82;21113;-76
2022/08/03 11:38:02;;;;;;;6.45;5.85;;;;;;;32.05;59.87;99524.41;1708957;82;21088;-81
2022/08/03 11:40:38;;;;;;;7.12;6.50;;;;;;;32.42;59.25;99521.69;1685384;83;21072;-79
2022/08/03 11:43:08;;;;;;;7.28;6.65;;;;;;;32.83;58.50;99532.88;1682324;83;21092;-81
2022/08/03 11:45:36;;;;;;;8.85;7.50;;;;;;;33.19;59.11;99525.48;1710202;82;21146;-78
2022/08/03 11:48:15;;;;;;;7.40;6.70;;;;;;;33.52;58.75;99529.89;1681221;83;21090;-79
2022/08/03 11:50:44;;;;;;;9.10;7.90;;;;;;;33.79;57.69;99523.79;1714991;82;21098;-79